createdAt,value
2022-08-09T00:01:54.876Z,965.18
2022-08-09T00:07:18.266Z,965.22
2022-08-09T00:12:51.595Z,965.18
2022-08-09T00:18:21.905Z,965.22
2022-08-09T00:23:57.861Z,965.24
2022-08-09T00:29:39.344Z,965.24
2022-08-09T00:34:58.599Z,965.22
2022-08-09T00:40:30.142Z,965.24
2022-08-09T00:46:01.038Z,965.24
2022-08-09T00:51:33.949Z,965.22
2022-08-09T00:57:10.690Z,965.24
2022-08-09T03:04:16.770Z,965.53
2022-08-09T03:09:16.071Z,965.53
2022-08-09T03:14:48.159Z,965.51
2022-08-09T03:20:43.388Z,965.49
2022-08-09T03:26:14.965Z,965.43
2022-08-09T03:31:59.502Z,965.45
2022-08-09T03:37:54.586Z,965.45
2022-08-09T03:42:50.364Z,965.47
2022-08-09T03:48:30.609Z,965.53
2022-08-09T03:53:54.048Z,965.57
2022-08-09T03:59:27.246Z,965.59
2022-08-09T04:04:58.432Z,965.61
2022-08-09T04:10:30.510Z,965.67
2022-08-09T04:16:20.256Z,965.73
2022-08-09T04:21:38.470Z,965.75
2022-08-09T04:27:05.225Z,965.82
2022-08-09T04:32:38.562Z,965.84
2022-08-09T04:38:09.096Z,965.90
2022-08-09T04:43:53.650Z,965.94
2022-08-09T04:49:14.559Z,965.98
2022-08-09T04:54:45.018Z,965.98
2022-08-09T05:00:17.244Z,966.00
2022-08-09T05:05:52.070Z,966.02
2022-08-09T05:11:21.214Z,966.04
2022-08-09T05:16:59.564Z,966.06
2022-08-09T05:22:33.227Z,966.10
2022-08-09T05:27:57.859Z,966.12
2022-08-09T05:33:33.164Z,966.14
2022-08-09T05:39:01.566Z,966.18
2022-08-09T05:44:34.889Z,966.22
2022-08-09T05:50:25.804Z,966.22
2022-08-09T05:55:36.889Z,966.22
2022-08-09T06:01:08.807Z,966.26
2022-08-09T06:06:45.141Z,966.26
2022-08-09T06:12:12.691Z,966.26
2022-08-09T06:17:44.573Z,966.26
2022-08-09T06:23:16.395Z,966.28
2022-08-09T06:28:47.913Z,966.29
2022-08-09T06:34:19.981Z,966.29
2022-08-09T06:39:59.848Z,966.28
2022-08-09T06:46:06.940Z,966.28
2022-08-09T06:50:55.103Z,966.26
2022-08-09T06:56:31.154Z,966.28
2022-08-09T07:02:03.589Z,966.28
2022-08-09T07:08:00.551Z,966.28
2022-08-09T07:13:18.563Z,966.31
2022-08-09T07:18:34.203Z,966.33
2022-08-09T07:24:06.277Z,966.33
2022-08-09T07:29:42.888Z,966.31
2022-08-09T07:35:10.719Z,966.35
2022-08-09T07:41:08.331Z,966.35
2022-08-09T07:46:13.248Z,966.33
2022-08-09T07:52:06.122Z,966.35
2022-08-09T07:57:17.435Z,966.41
2022-08-09T08:02:49.248Z,966.47
2022-08-09T08:09:01.718Z,966.47
2022-08-09T08:13:56.891Z,966.49
2022-08-09T08:19:29.221Z,966.49
2022-08-09T08:30:26.840Z,966.51
2022-08-09T08:36:00.435Z,966.51
2022-08-09T08:41:42.026Z,966.49
2022-08-09T08:47:04.485Z,966.51
2022-08-09T08:58:05.483Z,966.55
2022-08-09T09:03:37.840Z,966.55
2022-08-09T09:09:21.251Z,966.51
2022-08-09T09:14:41.043Z,966.49
2022-08-09T09:20:15.545Z,966.51
2022-08-09T09:26:01.380Z,966.45
2022-08-09T09:31:17.489Z,966.43
2022-08-09T09:36:53.253Z,966.41
2022-08-09T09:42:21.347Z,966.39
2022-08-09T09:47:56.366Z,966.41
2022-08-09T09:53:43.720Z,966.41
2022-08-09T09:58:56.222Z,966.41
2022-08-09T10:04:30.993Z,966.37
2022-08-09T10:10:00.112Z,966.41
2022-08-09T10:16:08.674Z,966.41
2022-08-09T10:21:03.810Z,966.41
2022-08-09T10:26:35.615Z,966.39
2022-08-09T10:37:39.516Z,966.35
2022-08-09T10:43:13.022Z,966.33
2022-08-09T10:48:43.942Z,966.31
2022-08-09T10:54:15.738Z,966.29
2022-08-09T10:59:57.423Z,966.28
2022-08-09T11:05:24.980Z,966.24
2022-08-09T11:10:54.684Z,966.24
2022-08-09T11:16:35.040Z,966.22
2022-08-09T11:22:05.453Z,966.20
2022-08-09T11:28:05.224Z,966.18
2022-08-09T11:32:59.658Z,966.20
2022-08-09T11:38:33.293Z,966.20
2022-08-09T11:44:03.197Z,966.20
2022-08-09T11:49:42.566Z,966.18
2022-08-09T11:55:06.876Z,966.14
2022-08-09T12:00:38.663Z,966.14
2022-08-09T12:06:10.721Z,966.10
2022-08-09T12:12:02.694Z,966.08
2022-08-09T12:17:33.893Z,966.04
2022-08-09T12:22:46.337Z,966.02
2022-08-09T12:29:11.816Z,965.98
2022-08-09T12:33:58.688Z,965.94
2022-08-09T12:39:21.975Z,965.92
2022-08-09T12:44:54.734Z,965.86
2022-08-09T12:50:26.053Z,965.84
2022-08-09T12:56:15.326Z,965.82
2022-08-09T13:01:29.820Z,965.77
2022-08-09T13:07:01.995Z,965.73
2022-08-09T13:12:40.047Z,965.71
2022-08-09T13:18:09.800Z,965.71
2022-08-09T13:24:16.696Z,965.69
2022-08-09T13:29:09.753Z,965.67
2022-08-09T13:34:42.004Z,965.67
2022-08-09T13:41:56.538Z,965.65
2022-08-09T13:46:42.194Z,965.61
2022-08-09T13:51:18.127Z,965.59
2022-08-09T13:56:50.487Z,965.55
2022-08-09T14:02:35.374Z,965.57
2022-08-09T14:07:55.023Z,965.57
2022-08-09T14:14:15.662Z,965.57
2022-08-09T14:18:59.683Z,965.59
2022-08-09T14:24:32.426Z,965.59
2022-08-09T14:30:33.989Z,965.57
2022-08-09T14:35:52.327Z,965.55
2022-08-09T14:41:34.580Z,965.55
2022-08-09T14:47:04.714Z,965.53
2022-08-09T14:52:11.463Z,965.55
2022-08-09T14:57:43.863Z,965.49
2022-08-09T15:03:16.651Z,965.51
2022-08-09T15:08:56.386Z,965.49
2022-08-09T15:14:19.604Z,965.45
2022-08-09T15:19:59.673Z,965.43
2022-08-09T15:25:38.893Z,965.43
2022-08-09T15:31:08.724Z,965.41
2022-08-09T15:36:29.413Z,965.37
2022-08-09T15:41:59.829Z,965.32
2022-08-09T15:47:47.211Z,965.28
2022-08-09T15:58:35.572Z,965.28
2022-08-09T16:04:13.596Z,965.28
2022-08-09T16:10:02.291Z,965.24
2022-08-09T16:16:10.256Z,965.24
2022-08-09T16:20:43.281Z,965.24
2022-08-09T16:26:19.941Z,965.24
2022-08-09T16:32:18.513Z,965.22
2022-08-09T16:34:02.510Z,965.18
2022-08-09T16:39:47.956Z,965.22
2022-08-09T16:45:03.862Z,965.20
2022-08-09T16:50:38.722Z,965.16
2022-08-09T16:56:09.861Z,965.20
2022-08-09T17:01:39.443Z,965.20
2022-08-09T17:08:46.352Z,965.20
2022-08-09T17:12:43.607Z,965.22
2022-08-09T17:18:15.496Z,965.24
2022-08-09T17:24:28.222Z,965.26
2022-08-09T17:29:20.237Z,965.28
2022-08-09T17:35:03.874Z,965.32
2022-08-09T17:40:26.211Z,965.32
2022-08-09T17:46:03.417Z,965.35
2022-08-09T17:51:25.778Z,965.34
2022-08-09T17:56:57.682Z,965.34
2022-08-09T18:02:33.537Z,965.41
2022-08-09T18:08:01.382Z,965.43
2022-08-09T18:13:40.037Z,965.51
2022-08-09T18:20:57.988Z,965.53
2022-08-09T18:24:36.148Z,965.53
2022-08-09T18:30:40.885Z,965.59
2022-08-09T18:35:59.496Z,965.59
2022-08-09T18:41:11.332Z,965.63
2022-08-09T18:46:49.541Z,965.63
2022-08-09T18:52:16.058Z,965.67
2022-08-09T18:57:46.581Z,965.73
2022-08-09T19:03:18.674Z,965.79
2022-08-09T19:08:55.430Z,965.82
2022-08-09T19:14:24.491Z,965.88
2022-08-09T19:20:00.597Z,965.96
2022-08-09T19:25:41.872Z,966.04
2022-08-09T19:30:56.627Z,966.08
2022-08-09T19:36:32.785Z,966.08
2022-08-09T19:42:00.281Z,966.12
2022-08-09T19:47:31.861Z,966.12
2022-08-09T19:53:04.165Z,966.14
2022-08-09T19:58:35.359Z,966.18
2022-08-09T20:04:18.958Z,966.22
2022-08-09T20:09:44.551Z,966.28
2022-08-09T20:16:34.223Z,966.29
2022-08-09T20:20:43.685Z,966.33
2022-08-09T20:26:15.612Z,966.31
2022-08-09T20:32:28.901Z,966.31
2022-08-09T20:37:21.440Z,966.37
2022-08-09T20:42:53.256Z,966.37
2022-08-09T20:48:22.219Z,966.41
2022-08-09T20:53:54.053Z,966.41
2022-08-09T21:00:22.266Z,966.47
2022-08-09T21:05:57.136Z,966.47
2022-08-09T21:10:30.502Z,966.53
2022-08-09T21:16:03.270Z,966.55
2022-08-09T21:21:53.121Z,966.53
2022-08-09T21:27:50.416Z,966.51
2022-08-09T21:32:38.702Z,966.53
2022-08-09T21:38:10.546Z,966.53
2022-08-09T21:43:58.101Z,966.57
2022-08-09T21:49:13.649Z,966.59
2022-08-09T21:54:46.036Z,966.59
2022-08-09T22:00:17.292Z,966.57
2022-08-09T22:05:51.219Z,966.55
2022-08-09T22:12:05.371Z,966.53
2022-08-09T22:16:52.635Z,966.55
2022-08-09T22:22:25.499Z,966.55
2022-08-09T22:27:57.328Z,966.55
2022-08-09T22:33:37.611Z,966.53
2022-08-09T22:39:01.426Z,966.49
2022-08-09T22:50:04.775Z,966.45
2022-08-09T22:56:29.431Z,966.37
2022-08-09T23:06:40.160Z,966.29
2022-08-09T23:12:11.970Z,966.24
2022-08-09T23:17:44.019Z,966.18
2022-08-09T23:23:18.314Z,966.16
2022-08-09T23:28:50.918Z,966.16
2022-08-09T23:34:22.564Z,966.16
2022-08-09T23:39:54.347Z,966.18
2022-08-09T23:45:37.984Z,966.20
2022-08-09T23:50:57.973Z,966.20
2022-08-09T23:56:52.776Z,966.20
